Nevihte Od: 01-08-2021 00:00 Do: 23:59 Opozorilo za: Nevihte Stopnja: Oranžna info button
Dež Od: 01-08-2021 12:00 Do: 22:59 Opozorilo za: Dež Stopnja: Rumena info button
Veter Od: 01-08-2021 09:00 Do: 17:59 Opozorilo za: Veter Stopnja: Rumena info button
ďťż

Indeks požarne ogroženosti za amatersko vremensko postajo

(Podrobnosti so pod tabelo)
Legenda:
Majhna (0-210)
Zelo visoka (490 - 630)

Srednja (210 - 350)
Ekstremna (630+)

Visoka (350 - 490)


Flame  Flame
176.3
Datum Temp. (°C) Hitrost Vetra (km/h) Dež (mm) RH Dni od zadnjega dežja pwsFWI
Napovedi, vključno z današnjim dnem, so nad rdečo črto!
05/08/21 20.0 9.0 16.0 0.83 0 43.1
04/08/21 22.0 6.0 2.9 0.64 0 5.7
03/08/21 22.0 7.0 7.9 0.73 0 65.6
02/08/21 21.0 9.0 14.0 0.77 0 65.7
01/08/21 21.0 13.0 51.0 0.77 0 67.3
31/07/21 27.0 13.0 0.0 0.56 1 176.3
30/07/21 28.2 19.0 11.4 0.55 0 241.5
29/07/21 27.8 19.0 0.0 0.56 1 265.3
28/07/21 34.4 22.0 1.6 0.56 0 325.4
27/07/21 24.9 15.0 2.1 0.56 0 329.5
26/07/21 25.0 26.0 0.0 0.56 3 348.0
25/07/21 28.1 22.0 0.0 0.49 2 274.7
24/07/21 26.9 15.0 0.0 0.58 1 312.2
23/07/21 26.8 14.0 0.5 0.28 0 345.0
22/07/21 24.9 13.0 0.0 0.56 2 313.9
21/07/21 26.4 11.0 0.0 0.52 1 277.0
20/07/21 26.4 8.0 1.6 0.53 0 271.5
19/07/21 35.5 17.0 0.0 0.37 1 240.7
18/07/21 25.2 25.0 0.5 0.51 0 135.0
17/07/21 21.9 16.0 0.0 0.55 1 111.9
16/07/21 20.3 12.0 1.6 0.58 0 30.9
15/07/21 21.5 9.0 0.0 0.59 1 67.7
14/07/21 20.3 19.0 17.6 0.64 0 144.6
13/07/21 26.9 14.0 10.4 0.53 0 233.2
12/07/21 27.6 16.0 0.0 0.54 1 334.5
11/07/21 26.9 15.0 11.9 0.44 0 352.4
10/07/21 24.5 15.0 0.0 0.48 5 337.6
09/07/21 25.9 23.0 0.0 0.44 4 288.7
08/07/21 29.4 19.0 0.0 0.46 3 272.8
07/07/21 28.8 15.0 0.0 0.48 2 116.9

CumulusUtils Version 4.8.3 - generated at 01/08/2021 01:00 - © Hans Rottier
Science background here. Prediction: https://www.yourweather.co.uk/
sucontract_SNC